Robert Gray Army Air Field Airport
KGRK : now visible

Airfield :











YOU CAN JOIN US ON...

 
LOGIN :

Register | Disclaimer

   EN    FR    IT 

 









Legend :    VFR   Marginal VFR   IFR   Intensive IFR   Very Intensive IFR
Visi :
Ceiling :
>= 8 km
>= 3000ft
5 to 8 km
1000 to 3000 ft
1500m to 5 km
500 to 1000 ft
800 to 1500m
200 to 500 ft
< 800m
< 200 ft
Symbols :   Thunderstorms  Fog  Heavy snow  Heavy precipitations  Wind > 20 kt






- Airport Elevation : 1015 ft
- IATA code : GRK


KGRK - Robert Gray Army Air Field

CURRENT METAR :
  • 050756Z AUTO 18008KT 10SM OVC006 19/18 A3000 RMK AO2 SLP152 T01850175

EXPIRED METARs :
  • 050729Z AUTO 17007KT 10SM OVC006 18/17 A3000 RMK AO2 SLP152
  • 050714Z AUTO 16006KT 9SM BKN007 18/17 A3000 RMK AO2 BKN V SCT SLP152
  • 050656Z AUTO 16004KT 9SM CLR 17/16 A3001 RMK AO2 SLP156 T01730161
  • 050621Z AUTO 16006KT 10SM SCT014 SCT048 19/17 A3003 RMK AO2 SLP163
  • 050556Z AUTO 17005KT 10SM BKN014 BKN021 BKN043 18/17 A3004 RMK AO2 CIG 014V021 SLP167 T01840167 10204 20176 402440158 50000
  • 050546Z AUTO 17006KT 10SM FEW015 BKN021 BKN043 19/17 A3004 RMK AO2 CIG 020V043 BKN021 V SCT SLP166
  • 050521Z AUTO 16003KT 10SM BKN020 19/17 A3004 RMK AO2 CIG 020V041 BKN V FEW SLP166
  • 050516Z AUTO 17004KT 10SM SCT020 BKN041 19/17 A3004 RMK AO2 SLP166
  • 050501Z AUTO 18005KT 10SM SCT040 20/17 A3004 RMK AO2 SLP166

TAF AMD TAF KGRK
Valid from the 05 at 07:00 until the 06 at 06:00 UTC


050700Z 0507/0606 VRB06KT 9999 SCT015 QNH3000INS
BECMG 0507/0508 VRB06KT 8000 BR BKN009 QNH3003INS
TEMPO 0508/0513 4800 BR OVC003
BECMG 0515/0516 20015G20KT 9999 NSW BKN008 510013 QNH3001INS
BECMG 0517/0518 20015G20KT 9999 SCT016 510013 QNH2987INS
BECMG 0604/0605 19006KT 8000 BR BKN007 QNH2991INS TX24/0520Z TN17/0507Z
KZHU FIR / North America



MET'MAP, your aeronautical weather chart ! - Copyright ORBIFLY December 2007 - Disclaimer

ORBIFLY MET'MAP TEAM :

Programming & Development : Alexandra Zaïnal
Concept & original design : Baudouin d'Aumeries
Assistance for programming : Marc-Olivier Méhu
Technical & hardware support : Manuel Goepfert

Contact : metmap@orbifly.com




SOURCES & CREDITS :

   NOAA       Earth
Advisory